createdAt,value
2023-01-15T00:02:13.080Z,89.34
2023-01-15T00:04:41.734Z,88.86
2023-01-15T00:07:11.684Z,88.98
2023-01-15T00:09:40.228Z,89.02
2023-01-15T00:12:09.288Z,89.23
2023-01-15T00:14:38.154Z,88.53
2023-01-15T00:17:06.635Z,87.96
2023-01-15T00:19:35.321Z,88.15
2023-01-15T00:22:03.710Z,88.68
2023-01-15T00:24:51.321Z,87.62
2023-01-15T00:27:37.696Z,87.99
2023-01-15T00:30:07.275Z,87.67
2023-01-15T00:32:36.328Z,87.87
2023-01-15T00:35:04.852Z,88.61
2023-01-15T00:37:33.076Z,88.48
2023-01-15T00:40:03.064Z,89.26
2023-01-15T00:42:31.786Z,88.81
2023-01-15T00:45:05.873Z,88.97
2023-01-15T00:47:34.893Z,89.96
2023-01-15T00:50:02.978Z,89.37
2023-01-15T00:52:31.402Z,89.52
2023-01-15T00:54:59.545Z,89.25
2023-01-15T00:57:29.838Z,89.51
2023-01-15T00:59:58.094Z,88.95
2023-01-15T01:02:26.902Z,89.03
2023-01-15T01:04:55.082Z,89.12
2023-01-15T01:07:23.269Z,89.10
2023-01-15T01:09:52.037Z,88.17
2023-01-15T01:12:21.729Z,88.63
2023-01-15T01:14:51.684Z,87.96
2023-01-15T01:17:19.931Z,88.02
2023-01-15T01:19:48.132Z,86.91
2023-01-15T01:22:16.490Z,88.32
2023-01-15T01:24:44.990Z,87.67
2023-01-15T01:27:13.149Z,86.65
2023-01-15T01:29:41.679Z,87.61
2023-01-15T01:32:11.769Z,87.64
2023-01-15T01:34:39.940Z,88.04
2023-01-15T01:37:08.828Z,88.45
2023-01-15T01:39:37.028Z,87.62
2023-01-15T01:42:12.755Z,88.12
2023-01-15T01:45:04.601Z,87.76
2023-01-15T01:47:36.005Z,87.97
2023-01-15T01:50:09.644Z,87.58
2023-01-15T01:52:43.858Z,87.54
2023-01-15T01:55:15.889Z,87.70
2023-01-15T01:57:45.718Z,88.98
2023-01-15T02:00:16.005Z,87.50
2023-01-15T02:02:48.825Z,88.31
2023-01-15T02:05:23.747Z,88.38
2023-01-15T02:07:52.024Z,88.50
2023-01-15T02:10:20.639Z,87.86
2023-01-15T02:12:57.615Z,88.07
2023-01-15T02:15:32.995Z,89.61
2023-01-15T02:18:12.637Z,89.27
2023-01-15T02:20:43.743Z,89.19
2023-01-15T02:23:49.469Z,89.34
2023-01-15T02:26:52.117Z,89.70
2023-01-15T02:29:30.104Z,89.23
2023-01-15T02:32:03.188Z,89.16
2023-01-15T02:34:36.967Z,89.32
2023-01-15T02:37:09.572Z,88.60
2023-01-15T02:39:42.074Z,89.19
2023-01-15T02:42:12.964Z,88.48
2023-01-15T02:44:45.506Z,88.05
2023-01-15T02:47:14.841Z,87.62
2023-01-15T02:49:46.592Z,88.53
2023-01-15T02:52:20.488Z,88.73
2023-01-15T02:54:54.838Z,88.66
2023-01-15T02:57:30.330Z,91.22
2023-01-15T03:00:02.124Z,89.34
2023-01-15T03:02:36.562Z,90.17
2023-01-15T03:05:10.235Z,90.34
2023-01-15T03:07:44.164Z,90.77
2023-01-15T03:10:12.966Z,90.91
2023-01-15T03:13:07.684Z,90.44
2023-01-15T03:16:02.126Z,90.24
2023-01-15T03:18:35.512Z,90.12
2023-01-15T03:21:07.760Z,90.78
2023-01-15T03:23:40.584Z,91.11
2023-01-15T03:26:08.801Z,90.58
2023-01-15T03:28:41.951Z,91.18
2023-01-15T03:31:10.227Z,91.86
2023-01-15T03:33:38.705Z,92.08
2023-01-15T03:36:07.805Z,91.85
2023-01-15T03:38:38.847Z,91.77
2023-01-15T03:41:16.142Z,91.81
2023-01-15T03:43:56.813Z,91.77
2023-01-15T03:46:37.577Z,91.86
2023-01-15T03:49:14.748Z,91.66
2023-01-15T03:51:49.898Z,91.32
2023-01-15T03:54:25.203Z,92.01
2023-01-15T03:57:00.029Z,92.04
2023-01-15T03:59:34.668Z,91.82
2023-01-15T04:02:05.230Z,91.20
2023-01-15T04:04:34.683Z,91.33
2023-01-15T04:07:05.096Z,91.74
2023-01-15T04:09:38.268Z,91.99
2023-01-15T04:12:07.791Z,91.45
2023-01-15T04:14:37.612Z,91.68
2023-01-15T04:17:06.145Z,90.63
2023-01-15T04:19:34.450Z,91.06
2023-01-15T04:22:03.076Z,91.33
2023-01-15T04:24:31.102Z,91.92
2023-01-15T04:26:59.267Z,91.60
2023-01-15T04:29:27.435Z,92.74
2023-01-15T04:31:57.991Z,92.29
2023-01-15T04:34:26.764Z,91.67
2023-01-15T04:36:55.347Z,91.81
2023-01-15T04:39:23.631Z,91.20
2023-01-15T04:42:09.240Z,91.71
2023-01-15T04:44:37.583Z,92.84
2023-01-15T04:47:07.196Z,91.90
2023-01-15T04:49:35.476Z,92.32
2023-01-15T04:52:03.871Z,93.74
2023-01-15T04:54:31.835Z,92.41
2023-01-15T04:56:59.948Z,92.89
2023-01-15T04:59:28.825Z,93.47
2023-01-15T05:02:05.022Z,93.75
2023-01-15T05:04:36.007Z,92.84
2023-01-15T05:07:04.995Z,93.05
2023-01-15T05:09:33.769Z,92.83
2023-01-15T05:12:01.776Z,92.82
2023-01-15T05:14:30.126Z,92.87
2023-01-15T05:16:58.101Z,92.85
2023-01-15T05:19:26.262Z,92.46
2023-01-15T05:21:55.944Z,92.66
2023-01-15T05:24:24.000Z,92.91
2023-01-15T05:26:52.197Z,93.32
2023-01-15T05:29:20.276Z,93.49
2023-01-15T05:31:48.660Z,93.91
2023-01-15T05:34:16.522Z,93.58
2023-01-15T05:36:44.418Z,93.64
2023-01-15T05:39:13.707Z,93.06
2023-01-15T05:41:51.479Z,93.03
2023-01-15T05:44:21.945Z,92.91
2023-01-15T05:46:52.244Z,92.19
2023-01-15T05:49:22.691Z,92.26
2023-01-15T05:51:51.942Z,92.10
2023-01-15T05:54:23.312Z,92.40
2023-01-15T05:56:51.204Z,93.03
2023-01-15T05:59:21.730Z,92.89
2023-01-15T06:01:49.912Z,92.88
2023-01-15T06:04:21.210Z,93.67
2023-01-15T06:06:50.631Z,93.04
2023-01-15T06:09:18.817Z,92.67
2023-01-15T06:11:48.701Z,92.78
2023-01-15T06:14:16.703Z,93.05
2023-01-15T06:16:44.951Z,93.45
2023-01-15T06:19:14.090Z,94.01
2023-01-15T06:21:42.720Z,93.62
2023-01-15T06:24:10.804Z,93.10
2023-01-15T06:26:39.679Z,93.23
2023-01-15T06:29:08.911Z,92.68
2023-01-15T06:31:37.352Z,93.47
2023-01-15T06:34:05.253Z,93.58
2023-01-15T06:36:33.453Z,93.44
2023-01-15T06:39:01.276Z,94.66
2023-01-15T06:41:55.287Z,95.24
2023-01-15T06:44:42.540Z,95.46
2023-01-15T06:47:24.789Z,94.10
2023-01-15T06:49:55.685Z,94.18
2023-01-15T06:52:24.208Z,93.77
2023-01-15T06:54:52.624Z,93.23
2023-01-15T06:57:20.771Z,92.70
2023-01-15T06:59:51.951Z,94.02
2023-01-15T07:02:19.908Z,92.52
2023-01-15T07:04:48.272Z,93.16
2023-01-15T07:07:16.626Z,92.80
2023-01-15T07:09:44.399Z,92.57
2023-01-15T07:12:12.308Z,92.83
2023-01-15T07:14:40.599Z,93.55
2023-01-15T07:17:09.982Z,92.60
2023-01-15T07:19:39.410Z,92.05
2023-01-15T07:22:08.046Z,91.25
2023-01-15T07:24:36.306Z,91.75
2023-01-15T07:27:04.177Z,92.39
2023-01-15T07:29:32.018Z,93.24
2023-01-15T07:31:59.842Z,93.44
2023-01-15T07:34:29.580Z,93.04
2023-01-15T07:36:57.295Z,93.40
2023-01-15T07:39:25.804Z,93.32
2023-01-15T07:42:10.984Z,93.45
2023-01-15T07:44:57.108Z,93.76
2023-01-15T07:47:46.685Z,92.86
2023-01-15T07:50:19.440Z,92.32
2023-01-15T07:52:47.557Z,91.66
2023-01-15T07:55:16.351Z,93.23
2023-01-15T07:57:44.908Z,93.04
2023-01-15T08:00:16.911Z,92.21
2023-01-15T08:02:46.042Z,92.35
2023-01-15T08:05:16.022Z,92.53
2023-01-15T08:07:45.346Z,93.00
2023-01-15T08:10:15.344Z,91.58
2023-01-15T08:13:00.814Z,91.72
2023-01-15T08:15:33.793Z,91.89
2023-01-15T08:18:01.771Z,92.94
2023-01-15T08:20:30.975Z,92.42
2023-01-15T08:22:59.007Z,91.47
2023-01-15T08:25:27.677Z,92.45
2023-01-15T08:27:56.574Z,91.70
2023-01-15T08:30:27.132Z,91.94
2023-01-15T08:33:00.626Z,92.39
2023-01-15T08:35:30.043Z,91.96
2023-01-15T08:37:57.811Z,93.71
2023-01-15T08:40:26.357Z,93.07
2023-01-15T08:42:56.504Z,92.71
2023-01-15T08:45:25.020Z,92.50
2023-01-15T08:47:56.616Z,93.45
2023-01-15T08:50:25.135Z,92.66
2023-01-15T08:52:54.569Z,92.63
2023-01-15T08:55:23.131Z,91.76
2023-01-15T08:57:52.022Z,92.19
2023-01-15T09:00:22.059Z,92.20
2023-01-15T09:02:50.418Z,92.18
2023-01-15T09:05:19.001Z,91.36
2023-01-15T09:07:47.189Z,92.57
2023-01-15T09:10:17.635Z,91.27
2023-01-15T09:12:46.195Z,92.14
2023-01-15T09:15:14.427Z,90.53
2023-01-15T09:17:42.899Z,90.73
2023-01-15T09:20:14.150Z,91.33
2023-01-15T09:22:42.386Z,91.95
2023-01-15T09:25:11.260Z,90.79
2023-01-15T09:27:40.413Z,92.05
2023-01-15T09:30:10.322Z,92.44
2023-01-15T09:32:38.586Z,91.77
2023-01-15T09:35:07.599Z,90.61
2023-01-15T09:37:35.790Z,91.68
2023-01-15T09:40:06.249Z,91.58
2023-01-15T09:42:45.070Z,88.91
2023-01-15T09:45:20.447Z,90.56
2023-01-15T09:48:03.837Z,90.41
2023-01-15T09:50:40.678Z,90.25
2023-01-15T09:53:32.663Z,89.03
2023-01-15T09:56:03.099Z,89.76
2023-01-15T09:58:36.937Z,90.16
2023-01-15T10:01:07.363Z,89.23
2023-01-15T10:03:44.650Z,90.76
2023-01-15T10:06:18.007Z,88.49
2023-01-15T10:08:47.396Z,89.73
2023-01-15T10:11:49.611Z,89.41
2023-01-15T10:14:32.526Z,89.06
2023-01-15T10:17:00.782Z,87.78
2023-01-15T10:19:43.788Z,88.13
2023-01-15T10:22:22.805Z,87.62
2023-01-15T10:24:58.558Z,89.47
2023-01-15T10:27:30.192Z,88.48
2023-01-15T10:30:06.475Z,90.94
2023-01-15T10:33:00.627Z,89.05
2023-01-15T10:35:40.134Z,89.26
2023-01-15T10:38:15.635Z,89.13
2023-01-15T10:40:59.036Z,90.05
2023-01-15T10:43:39.712Z,88.96
2023-01-15T10:46:15.233Z,89.63
2023-01-15T10:48:47.003Z,89.35
2023-01-15T10:51:19.128Z,91.30
2023-01-15T10:53:51.837Z,91.60
2023-01-15T10:56:33.188Z,91.47
2023-01-15T10:59:09.042Z,90.76
2023-01-15T11:01:40.836Z,88.89
2023-01-15T11:04:12.456Z,89.15
2023-01-15T11:06:41.144Z,87.39
2023-01-15T11:09:19.452Z,88.29
2023-01-15T11:12:07.307Z,88.41
2023-01-15T11:14:55.328Z,87.20
2023-01-15T11:17:43.790Z,86.09
2023-01-15T11:20:23.844Z,88.33
2023-01-15T11:22:52.077Z,89.75
2023-01-15T11:25:29.976Z,88.38
2023-01-15T11:27:59.476Z,89.19
2023-01-15T11:30:32.221Z,88.36
2023-01-15T11:33:04.689Z,88.52
2023-01-15T11:35:34.011Z,88.58
2023-01-15T11:38:06.655Z,88.40
2023-01-15T11:40:35.403Z,88.21
2023-01-15T11:43:20.843Z,88.20
2023-01-15T11:46:08.219Z,87.19
2023-01-15T11:49:03.234Z,88.90
2023-01-15T11:51:34.707Z,88.48
2023-01-15T11:54:06.128Z,88.87
2023-01-15T11:56:37.913Z,87.86
2023-01-15T11:59:14.204Z,89.95
2023-01-15T12:01:54.966Z,87.23
2023-01-15T12:04:34.027Z,89.43
2023-01-15T12:07:03.306Z,87.98
2023-01-15T12:09:41.781Z,89.03
2023-01-15T12:12:21.789Z,90.54
2023-01-15T12:15:12.534Z,90.10
2023-01-15T12:18:09.573Z,91.60
2023-01-15T12:20:57.064Z,91.47
2023-01-15T12:23:54.387Z,88.79
2023-01-15T12:26:29.193Z,87.74
2023-01-15T12:29:06.494Z,87.98
2023-01-15T12:31:39.565Z,88.40
2023-01-15T12:34:19.375Z,89.40
2023-01-15T12:36:54.193Z,87.84
2023-01-15T12:39:27.880Z,89.63
2023-01-15T12:42:17.634Z,88.34
2023-01-15T12:45:04.931Z,88.88
2023-01-15T12:47:41.480Z,88.71
2023-01-15T12:50:24.185Z,88.49
2023-01-15T12:53:02.403Z,89.71
2023-01-15T12:55:34.999Z,89.53
2023-01-15T12:58:06.514Z,88.28
2023-01-15T13:00:42.328Z,89.69
2023-01-15T13:03:25.526Z,89.90
2023-01-15T13:05:57.659Z,89.63
2023-01-15T13:08:32.998Z,89.52
2023-01-15T13:11:01.579Z,89.50
2023-01-15T13:13:34.170Z,89.93
2023-01-15T13:16:13.752Z,87.92
2023-01-15T13:18:51.231Z,89.90
2023-01-15T13:21:21.654Z,90.65
2023-01-15T13:24:17.859Z,87.50
2023-01-15T13:27:15.664Z,89.05
2023-01-15T13:29:53.044Z,89.29
2023-01-15T13:32:24.749Z,89.25
2023-01-15T13:34:56.938Z,90.92
2023-01-15T13:37:29.288Z,89.96
2023-01-15T13:40:03.578Z,88.41
2023-01-15T13:42:33.142Z,91.01
2023-01-15T13:45:08.131Z,90.11
2023-01-15T13:47:39.750Z,89.96
2023-01-15T13:50:17.519Z,88.98
2023-01-15T13:52:48.665Z,89.78
2023-01-15T13:55:27.781Z,90.15
2023-01-15T13:57:56.193Z,88.67
2023-01-15T14:00:31.322Z,89.35
2023-01-15T14:03:01.231Z,88.57
2023-01-15T14:05:33.149Z,90.20
2023-01-15T14:08:02.984Z,90.32
2023-01-15T14:10:38.640Z,90.53
2023-01-15T14:13:46.908Z,91.35
2023-01-15T14:16:28.567Z,91.34
2023-01-15T14:19:23.937Z,91.41
2023-01-15T14:22:12.799Z,92.51
2023-01-15T14:24:56.580Z,91.63
2023-01-15T14:27:44.289Z,92.93
2023-01-15T14:30:38.820Z,91.43
2023-01-15T14:33:20.587Z,92.91
2023-01-15T14:35:50.282Z,91.51
2023-01-15T14:38:22.080Z,92.01
2023-01-15T14:40:56.767Z,91.27
2023-01-15T14:43:28.890Z,91.90
2023-01-15T14:45:57.706Z,91.85
2023-01-15T14:48:39.792Z,92.01
2023-01-15T14:51:13.586Z,92.17
2023-01-15T14:53:46.523Z,91.94
2023-01-15T14:56:22.598Z,92.07
2023-01-15T14:58:57.675Z,92.17
2023-01-15T15:01:43.299Z,92.80
2023-01-15T15:04:33.537Z,91.74
2023-01-15T15:07:04.691Z,91.87
2023-01-15T15:09:38.321Z,91.57
2023-01-15T15:12:26.655Z,91.72
2023-01-15T15:15:04.019Z,91.85
2023-01-15T15:17:40.524Z,92.46
2023-01-15T15:20:20.331Z,91.99
2023-01-15T15:22:54.638Z,92.04
2023-01-15T15:25:24.801Z,91.80
2023-01-15T15:28:03.296Z,90.92
2023-01-15T15:30:36.782Z,90.67
2023-01-15T15:33:07.139Z,91.14
2023-01-15T15:35:36.524Z,91.26
2023-01-15T15:38:07.115Z,90.53
2023-01-15T15:40:37.446Z,90.13
2023-01-15T15:43:33.355Z,90.55
2023-01-15T15:46:34.982Z,90.72
2023-01-15T15:49:06.347Z,91.29
2023-01-15T15:51:38.179Z,91.74
2023-01-15T15:54:17.780Z,91.49
2023-01-15T15:56:53.752Z,90.89
2023-01-15T15:59:46.366Z,89.84
2023-01-15T16:02:21.788Z,90.77
2023-01-15T16:04:52.364Z,89.81
2023-01-15T16:07:26.482Z,89.72
2023-01-15T16:09:58.071Z,89.59
2023-01-15T16:12:30.372Z,88.94
2023-01-15T16:15:00.597Z,88.86
2023-01-15T16:17:30.350Z,88.36
2023-01-15T16:20:00.209Z,87.80
2023-01-15T16:22:28.205Z,88.83
2023-01-15T16:24:58.425Z,88.40
2023-01-15T16:27:32.753Z,87.33
2023-01-15T16:30:02.125Z,87.30
2023-01-15T16:32:35.783Z,87.91
2023-01-15T16:35:08.103Z,88.35
2023-01-15T16:37:36.591Z,87.59
2023-01-15T16:40:07.444Z,87.84
2023-01-15T16:42:39.934Z,87.96
2023-01-15T16:45:21.691Z,89.04
2023-01-15T16:48:10.996Z,88.45
2023-01-15T16:50:40.728Z,88.62
2023-01-15T16:53:33.672Z,88.36
2023-01-15T16:56:01.778Z,87.71
2023-01-15T16:58:35.630Z,87.41
2023-01-15T17:01:25.951Z,88.05
2023-01-15T17:03:56.043Z,87.11
2023-01-15T17:06:27.347Z,87.80
2023-01-15T17:08:57.294Z,86.87
2023-01-15T17:11:30.034Z,86.80
2023-01-15T17:14:21.379Z,87.32
2023-01-15T17:16:50.060Z,86.79
2023-01-15T17:19:20.719Z,86.08
2023-01-15T17:21:49.202Z,86.42
2023-01-15T17:24:17.485Z,86.63
2023-01-15T17:26:45.644Z,85.71
2023-01-15T17:29:14.712Z,86.38
2023-01-15T17:31:44.055Z,86.41
2023-01-15T17:34:12.814Z,85.65
2023-01-15T17:36:42.084Z,86.44
2023-01-15T17:39:13.530Z,85.65
2023-01-15T17:41:41.783Z,85.25
2023-01-15T17:44:11.134Z,85.99
2023-01-15T17:46:39.271Z,85.46
2023-01-15T17:49:07.782Z,85.59
2023-01-15T17:51:35.833Z,85.42
2023-01-15T17:54:05.704Z,85.70
2023-01-15T17:56:50.560Z,85.63
2023-01-15T17:59:36.302Z,85.11
2023-01-15T18:02:29.217Z,86.16
2023-01-15T18:05:15.098Z,85.74
2023-01-15T18:07:44.642Z,85.81
2023-01-15T18:10:22.286Z,84.90
2023-01-15T18:12:50.924Z,85.48
2023-01-15T18:15:20.202Z,85.96
2023-01-15T18:17:48.589Z,84.32
2023-01-15T18:20:17.333Z,84.26
2023-01-15T18:22:45.278Z,82.05
2023-01-15T18:25:15.079Z,82.96
2023-01-15T18:27:43.940Z,82.75
2023-01-15T18:30:14.382Z,81.73
2023-01-15T18:32:44.201Z,82.78
2023-01-15T18:35:13.936Z,81.52
2023-01-15T18:37:42.849Z,81.24
2023-01-15T18:40:12.567Z,80.48
2023-01-15T18:43:00.504Z,81.95
2023-01-15T18:45:46.437Z,80.65
2023-01-15T18:48:14.552Z,81.82
2023-01-15T18:50:43.131Z,81.48
2023-01-15T18:53:13.316Z,80.16
2023-01-15T18:55:41.315Z,80.86
2023-01-15T18:58:10.765Z,80.86
2023-01-15T19:00:39.237Z,81.02
2023-01-15T19:03:08.085Z,82.41
2023-01-15T19:05:36.652Z,81.67
2023-01-15T19:08:04.686Z,82.71
2023-01-15T19:10:33.241Z,83.18
2023-01-15T19:13:02.206Z,83.35
2023-01-15T19:15:49.737Z,83.31
2023-01-15T19:18:40.771Z,84.23
2023-01-15T19:21:10.348Z,84.67
2023-01-15T19:23:38.280Z,84.88
2023-01-15T19:26:06.918Z,85.55
2023-01-15T19:28:35.150Z,86.09
2023-01-15T19:31:26.286Z,85.21
2023-01-15T19:34:13.265Z,85.65
2023-01-15T19:36:45.482Z,85.03
2023-01-15T19:39:16.792Z,84.76
2023-01-15T19:42:03.288Z,84.64
2023-01-15T19:44:49.049Z,84.87
2023-01-15T19:47:40.920Z,85.05
2023-01-15T19:50:22.294Z,84.57
2023-01-15T19:52:52.511Z,84.26
2023-01-15T19:55:22.540Z,84.84
2023-01-15T19:57:57.824Z,85.05
2023-01-15T20:00:26.304Z,84.48
2023-01-15T20:02:56.520Z,83.97
2023-01-15T20:05:26.604Z,84.74
2023-01-15T20:07:54.636Z,85.40
2023-01-15T20:10:26.226Z,83.80
2023-01-15T20:13:11.899Z,84.34
2023-01-15T20:15:42.963Z,84.58
2023-01-15T20:18:13.856Z,84.85
2023-01-15T20:20:42.550Z,84.69
2023-01-15T20:23:10.725Z,84.16
2023-01-15T20:25:41.739Z,83.99
2023-01-15T20:28:10.125Z,83.66
2023-01-15T20:30:38.639Z,83.40
2023-01-15T20:33:06.780Z,82.77
2023-01-15T20:35:36.513Z,82.66
2023-01-15T20:38:04.675Z,82.70
2023-01-15T20:40:32.944Z,81.95
2023-01-15T20:43:33.003Z,81.33
2023-01-15T20:46:09.868Z,80.95
2023-01-15T20:48:57.509Z,81.13
2023-01-15T20:51:27.280Z,81.08
2023-01-15T20:53:55.496Z,80.65
2023-01-15T20:56:24.138Z,81.29
2023-01-15T20:58:53.606Z,80.92
2023-01-15T21:01:22.070Z,80.69
2023-01-15T21:03:50.485Z,81.57
2023-01-15T21:06:18.995Z,81.22
2023-01-15T21:08:48.665Z,81.24
2023-01-15T21:11:17.393Z,81.30
2023-01-15T21:13:47.312Z,79.63
2023-01-15T21:16:16.692Z,81.38
2023-01-15T21:18:46.200Z,80.45
2023-01-15T21:21:16.619Z,81.01
2023-01-15T21:23:45.656Z,80.66
2023-01-15T21:26:16.485Z,80.60
2023-01-15T21:28:45.361Z,79.94
2023-01-15T21:31:15.126Z,79.48
2023-01-15T21:33:43.090Z,80.28
2023-01-15T21:36:13.715Z,78.98
2023-01-15T21:38:42.349Z,80.39
2023-01-15T21:41:11.606Z,80.13
2023-01-15T21:43:58.918Z,79.18
2023-01-15T21:46:28.610Z,79.64
2023-01-15T21:48:57.188Z,78.75
2023-01-15T21:51:26.926Z,78.81
2023-01-15T21:53:55.324Z,78.79
2023-01-15T21:56:23.717Z,78.65
2023-01-15T21:58:53.477Z,79.87
2023-01-15T22:01:21.955Z,79.66
2023-01-15T22:03:50.094Z,78.84
2023-01-15T22:06:18.557Z,79.38
2023-01-15T22:08:46.972Z,78.72
2023-01-15T22:11:15.109Z,79.19
2023-01-15T22:13:43.396Z,78.42
2023-01-15T22:16:13.191Z,78.62
2023-01-15T22:18:41.718Z,78.86
2023-01-15T22:21:16.061Z,78.40
2023-01-15T22:23:49.050Z,78.61
2023-01-15T22:26:19.642Z,79.22
2023-01-15T22:28:48.368Z,79.11
2023-01-15T22:31:18.247Z,78.82
2023-01-15T22:33:46.621Z,78.41
2023-01-15T22:36:15.799Z,78.28
2023-01-15T22:38:45.218Z,78.41
2023-01-15T22:41:13.532Z,78.71
2023-01-15T22:43:42.146Z,79.20
2023-01-15T22:46:11.335Z,79.00
2023-01-15T22:48:41.346Z,78.36
2023-01-15T22:51:09.323Z,79.31
2023-01-15T22:53:37.304Z,79.21
2023-01-15T22:56:06.229Z,79.70
2023-01-15T22:58:35.497Z,80.54
2023-01-15T23:01:03.656Z,80.40
2023-01-15T23:03:35.622Z,80.22
2023-01-15T23:06:07.201Z,81.37
2023-01-15T23:08:36.838Z,81.03
2023-01-15T23:11:10.343Z,80.57
